Terminal Aerodrome Forecast
Issued by NWS

Home | Current Version | Previous Version | Text Only | Print | Product List | Glossary On
Versions: 1 2 3 4 5 6 7 8 9 10 11 12 13 14 15
093
FTPA31 PHFO 212342
TAFHMK
TAF
PHMK 212342Z 2200/2224 03010KT P6SM SCT030 BKN100
     FM220600 VRB05KT P6SM SCT030 BKN100
     FM222000 06006KT P6SM -SHRA SCT025 BKN060 OVC100=

USA.gov is the U.S. government's official web portal to all federal, state and local government web resources and services.